createdAt,value
2018-07-24T00:01:20.727Z,11.60
2018-07-24T00:03:24.333Z,11.97
2018-07-24T00:05:27.954Z,13.50
2018-07-24T00:07:31.498Z,11.70
2018-07-24T00:09:35.121Z,10.97
2018-07-24T00:11:38.696Z,12.40
2018-07-24T00:13:42.368Z,10.67
2018-07-24T00:15:46.074Z,10.40
2018-07-24T00:17:49.641Z,11.23
2018-07-24T00:19:53.257Z,11.67
2018-07-24T00:21:56.852Z,11.83
2018-07-24T00:24:00.473Z,10.93
2018-07-24T00:26:04.059Z,10.30
2018-07-24T00:28:08.038Z,10.50
2018-07-24T00:30:12.001Z,9.43
2018-07-24T00:32:15.623Z,10.50
2018-07-24T00:34:19.380Z,10.07
2018-07-24T00:36:22.966Z,10.13
2018-07-24T00:38:26.558Z,10.90
2018-07-24T00:40:30.161Z,11.33
2018-07-24T00:42:33.728Z,10.90
2018-07-24T00:44:37.343Z,10.90
2018-07-24T00:46:40.948Z,9.87
2018-07-24T00:48:44.584Z,10.07
2018-07-24T00:50:48.225Z,9.93
2018-07-24T00:52:51.849Z,11.83
2018-07-24T00:54:55.477Z,10.87
2018-07-24T00:56:59.073Z,10.13
2018-07-24T00:59:02.686Z,10.77
2018-07-24T01:01:06.313Z,11.93
2018-07-24T01:03:10.249Z,10.97
2018-07-24T01:05:13.871Z,10.97
2018-07-24T01:07:17.441Z,11.80
2018-07-24T01:09:21.037Z,10.93
2018-07-24T01:11:24.683Z,10.53
2018-07-24T01:13:28.619Z,12.17
2018-07-24T01:15:32.670Z,12.23
2018-07-24T01:17:36.630Z,12.17
2018-07-24T01:19:40.629Z,11.70
2018-07-24T01:21:44.703Z,11.70
2018-07-24T01:23:48.439Z,12.13
2018-07-24T01:25:52.016Z,10.63
2018-07-24T01:27:55.620Z,11.03
2018-07-24T01:29:59.184Z,12.53
2018-07-24T01:32:02.765Z,11.00
2018-07-24T01:34:06.401Z,12.53
2018-07-24T01:36:09.993Z,11.10
2018-07-24T01:38:13.631Z,13.27
2018-07-24T01:40:17.238Z,12.83
2018-07-24T01:42:20.781Z,12.80
2018-07-24T01:44:24.366Z,12.60
2018-07-24T01:46:28.014Z,12.73
2018-07-24T01:48:31.593Z,13.43
2018-07-24T01:50:35.224Z,12.13
2018-07-24T01:52:38.904Z,12.43
2018-07-24T01:54:42.472Z,12.60
2018-07-24T01:56:46.056Z,12.30
2018-07-24T01:58:49.617Z,12.33
2018-07-24T02:00:53.380Z,11.93
2018-07-24T02:02:56.996Z,12.10
2018-07-24T02:05:00.577Z,13.07
2018-07-24T02:07:04.546Z,12.37
2018-07-24T02:09:10.162Z,13.10
2018-07-24T02:11:13.797Z,12.63
2018-07-24T02:13:17.402Z,12.93
2018-07-24T02:15:20.987Z,12.73
2018-07-24T02:17:24.614Z,12.33
2018-07-24T02:19:28.186Z,13.80
2018-07-24T02:21:31.745Z,12.43
2018-07-24T02:23:35.316Z,12.77
2018-07-24T02:25:39.084Z,13.13
2018-07-24T02:27:42.770Z,13.10
2018-07-24T02:29:46.481Z,12.03
2018-07-24T02:31:50.103Z,13.77
2018-07-24T02:33:53.986Z,12.67
2018-07-24T02:35:57.671Z,13.27
2018-07-24T02:38:01.231Z,12.20
2018-07-24T02:40:05.291Z,12.43
2018-07-24T02:42:09.001Z,13.73
2018-07-24T02:44:12.560Z,12.40
2018-07-24T02:46:16.186Z,13.53
2018-07-24T02:48:19.787Z,12.73
2018-07-24T02:50:23.398Z,13.07
2018-07-24T02:52:27.018Z,11.07
2018-07-24T02:54:30.645Z,13.50
2018-07-24T02:56:34.241Z,13.37
2018-07-24T02:58:37.767Z,13.77
2018-07-24T03:00:41.469Z,13.07
2018-07-24T03:02:45.144Z,13.73
2018-07-24T03:04:48.722Z,13.17
2018-07-24T03:06:52.339Z,12.57
2018-07-24T03:08:55.916Z,13.13
2018-07-24T03:10:59.554Z,12.40
2018-07-24T03:13:03.247Z,13.17
2018-07-24T03:15:06.949Z,12.30
2018-07-24T03:17:10.613Z,12.23
2018-07-24T03:19:14.233Z,12.20
2018-07-24T03:21:17.783Z,12.67
2018-07-24T03:23:21.457Z,12.00
2018-07-24T03:25:25.050Z,13.30
2018-07-24T03:27:28.702Z,12.63
2018-07-24T03:29:32.297Z,12.90
2018-07-24T03:31:35.926Z,12.23
2018-07-24T03:33:39.533Z,14.40
2018-07-24T03:35:43.080Z,12.60
2018-07-24T03:37:46.788Z,12.07
2018-07-24T03:39:56.612Z,13.37
2018-07-24T03:42:00.603Z,12.80
2018-07-24T03:44:04.236Z,12.80
2018-07-24T03:46:07.777Z,12.50
2018-07-24T03:48:11.435Z,13.23
2018-07-24T03:50:15.002Z,12.63
2018-07-24T03:52:18.641Z,12.03
2018-07-24T03:54:22.208Z,13.17
2018-07-24T03:56:26.184Z,11.77
2018-07-24T03:58:29.832Z,13.67
2018-07-24T04:00:33.426Z,11.50
2018-07-24T04:02:36.992Z,12.30
2018-07-24T04:04:40.509Z,12.40
2018-07-24T04:06:44.081Z,12.67
2018-07-24T04:08:48.033Z,13.07
2018-07-24T04:10:51.583Z,13.47
2018-07-24T04:12:55.980Z,13.03
2018-07-24T04:14:59.568Z,12.47
2018-07-24T04:17:03.182Z,11.73
2018-07-24T04:19:07.150Z,12.57
2018-07-24T04:21:10.736Z,13.33
2018-07-24T04:23:14.410Z,12.53
2018-07-24T04:25:17.993Z,11.63
2018-07-24T04:27:21.642Z,12.53
2018-07-24T04:29:25.297Z,12.33
2018-07-24T04:31:28.878Z,12.30
2018-07-24T04:33:32.513Z,12.37
2018-07-24T04:35:36.134Z,11.87
2018-07-24T04:37:39.722Z,12.03
2018-07-24T04:39:43.287Z,12.17
2018-07-24T04:41:47.246Z,12.17
2018-07-24T04:43:50.891Z,12.00
2018-07-24T04:45:54.527Z,12.13
2018-07-24T04:47:58.074Z,12.17
2018-07-24T04:50:01.682Z,11.53
2018-07-24T04:52:05.816Z,12.03
2018-07-24T04:54:09.476Z,10.90
2018-07-24T04:56:13.501Z,11.60
2018-07-24T04:58:17.092Z,11.60
2018-07-24T05:00:21.013Z,10.93
2018-07-24T05:02:24.664Z,11.83
2018-07-24T05:04:28.319Z,11.33
2018-07-24T05:06:32.018Z,10.90
2018-07-24T05:08:35.794Z,11.37
2018-07-24T05:10:39.402Z,11.70
2018-07-24T05:12:43.118Z,14.60
2018-07-24T05:14:46.990Z,11.57
2018-07-24T05:16:51.497Z,11.10
2018-07-24T05:18:55.375Z,11.23
2018-07-24T05:20:59.007Z,9.87
2018-07-24T05:23:02.784Z,11.30
2018-07-24T05:25:10.644Z,10.57
2018-07-24T05:27:14.306Z,10.50
2018-07-24T05:29:17.884Z,10.63
2018-07-24T05:31:21.720Z,11.50
2018-07-24T05:33:25.911Z,13.50
2018-07-24T05:35:29.758Z,11.57
2018-07-24T05:37:33.411Z,15.20
2018-07-24T05:39:37.004Z,9.50
2018-07-24T05:41:41.066Z,11.00
2018-07-24T05:43:44.623Z,11.27
2018-07-24T05:45:48.503Z,12.67
2018-07-24T05:47:54.911Z,10.90
2018-07-24T05:50:02.451Z,10.47
2018-07-24T05:52:09.637Z,10.60
2018-07-24T05:54:14.889Z,10.27
2018-07-24T05:56:18.651Z,14.77
2018-07-24T05:58:22.337Z,11.07
2018-07-24T06:00:26.219Z,10.80
2018-07-24T06:02:29.975Z,9.23
2018-07-24T06:04:33.513Z,8.97
2018-07-24T06:06:37.187Z,8.37
2018-07-24T06:08:41.049Z,8.97
2018-07-24T06:10:44.610Z,15.80
2018-07-24T06:12:48.278Z,15.87
2018-07-24T06:14:51.880Z,8.83
2018-07-24T06:16:55.583Z,8.37
2018-07-24T06:18:59.512Z,7.10
2018-07-24T06:21:03.275Z,8.10
2018-07-24T06:23:06.916Z,7.63
2018-07-24T06:25:10.901Z,7.30
2018-07-24T06:27:14.781Z,7.33
2018-07-24T06:29:18.523Z,8.07
2018-07-24T06:31:22.295Z,8.27
2018-07-24T06:33:25.937Z,7.60
2018-07-24T06:35:29.520Z,7.83
2018-07-24T06:37:33.257Z,7.97
2018-07-24T06:39:37.250Z,8.03
2018-07-24T06:41:41.660Z,7.57
2018-07-24T06:43:45.981Z,8.13
2018-07-24T06:45:50.527Z,7.03
2018-07-24T06:47:55.025Z,7.13
2018-07-24T06:50:00.237Z,7.57
2018-07-24T06:52:05.723Z,8.30
2018-07-24T06:54:09.523Z,7.20
2018-07-24T06:56:13.942Z,7.20
2018-07-24T06:58:21.916Z,7.80
2018-07-24T07:00:26.038Z,8.67
2018-07-24T07:02:30.148Z,7.17
2018-07-24T07:04:34.186Z,7.63
2018-07-24T07:06:38.317Z,8.20
2018-07-24T07:08:42.336Z,8.07
2018-07-24T07:10:46.289Z,7.90
2018-07-24T07:12:50.522Z,6.50
2018-07-24T07:14:54.292Z,7.90
2018-07-24T07:16:57.996Z,8.37
2018-07-24T07:19:02.015Z,8.37
2018-07-24T07:21:05.657Z,9.43
2018-07-24T07:23:09.283Z,9.37
2018-07-24T07:25:12.993Z,8.63
2018-07-24T07:27:16.979Z,9.47
2018-07-24T07:29:20.596Z,8.60
2018-07-24T07:31:24.210Z,7.70
2018-07-24T07:33:28.088Z,7.03
2018-07-24T07:35:32.301Z,7.53
2018-07-24T07:37:36.342Z,8.17
2018-07-24T07:39:41.325Z,7.87
2018-07-24T07:41:45.526Z,7.63
2018-07-24T07:43:49.567Z,7.23
2018-07-24T07:45:53.865Z,7.47
2018-07-24T07:47:57.682Z,7.77
2018-07-24T07:50:01.329Z,8.07
2018-07-24T07:52:05.371Z,7.80
2018-07-24T07:54:09.059Z,8.57
2018-07-24T07:56:12.905Z,8.23
2018-07-24T07:58:16.756Z,8.23
2018-07-24T08:00:20.928Z,8.40
2018-07-24T08:02:25.486Z,9.50
2018-07-24T08:04:29.807Z,7.30
2018-07-24T08:06:33.458Z,7.37
2018-07-24T08:08:37.341Z,8.07
2018-07-24T08:10:41.096Z,7.43
2018-07-24T08:12:44.872Z,7.97
2018-07-24T08:14:49.082Z,6.80
2018-07-24T08:16:53.513Z,7.03
2018-07-24T08:18:57.545Z,6.80
2018-07-24T08:21:01.273Z,6.90
2018-07-24T08:23:05.352Z,7.33
2018-07-24T08:25:09.815Z,7.15
2018-07-24T08:27:13.377Z,7.07
2018-07-24T08:29:17.136Z,7.90
2018-07-24T08:31:21.032Z,7.30
2018-07-24T08:33:24.735Z,6.87
2018-07-24T08:35:28.337Z,8.93
2018-07-24T08:37:31.940Z,8.05
2018-07-24T08:39:36.614Z,6.20
2018-07-24T08:41:41.690Z,6.58
2018-07-24T08:43:45.831Z,6.17
2018-07-24T08:45:50.058Z,6.50
2018-07-24T08:47:54.341Z,8.30
2018-07-24T08:49:58.689Z,5.83
2018-07-24T08:52:03.210Z,8.28
2018-07-24T08:54:07.911Z,6.53
2018-07-24T08:56:12.382Z,5.85
2018-07-24T08:58:16.577Z,6.20
2018-07-24T09:00:20.722Z,6.30
2018-07-24T09:02:25.332Z,7.03
2018-07-24T09:04:29.956Z,6.55
2018-07-24T09:06:34.412Z,7.00
2018-07-24T09:08:38.945Z,7.12
2018-07-24T09:10:43.220Z,6.87
2018-07-24T09:12:47.457Z,7.30
2018-07-24T09:14:51.971Z,7.10
2018-07-24T09:16:56.201Z,9.33
2018-07-24T09:18:59.973Z,7.20
2018-07-24T09:21:04.356Z,7.25
2018-07-24T09:23:09.310Z,6.80
2018-07-24T09:25:13.602Z,6.72
2018-07-24T09:27:17.835Z,8.15
2018-07-24T09:29:22.125Z,7.60
2018-07-24T09:31:26.506Z,5.90
2018-07-24T09:33:30.140Z,6.85
2018-07-24T09:35:34.457Z,5.80
2018-07-24T09:37:38.702Z,6.40
2018-07-24T09:39:42.432Z,6.90
2018-07-24T09:41:46.545Z,6.40
2018-07-24T09:43:52.008Z,6.33
2018-07-24T09:45:56.857Z,6.70
2018-07-24T09:48:03.506Z,6.42
2018-07-24T09:50:07.952Z,6.72
2018-07-24T09:52:12.254Z,7.85
2018-07-24T09:54:16.592Z,7.83
2018-07-24T09:56:20.886Z,6.85
2018-07-24T09:58:25.095Z,6.50
2018-07-24T10:00:34.993Z,6.22
2018-07-24T10:02:39.724Z,6.97
2018-07-24T10:04:44.419Z,7.58
2018-07-24T10:06:49.099Z,5.87
2018-07-24T10:08:53.783Z,7.97
2018-07-24T10:10:58.135Z,5.97
2018-07-24T10:13:02.730Z,5.50
2018-07-24T10:15:08.270Z,7.87
2018-07-24T10:17:12.781Z,6.40
2018-07-24T10:19:17.286Z,6.90
2018-07-24T10:21:22.314Z,8.53
2018-07-24T10:23:26.330Z,6.27
2018-07-24T10:25:30.546Z,6.77
2018-07-24T10:27:34.559Z,6.50
2018-07-24T10:29:39.308Z,6.58
2018-07-24T10:31:43.085Z,6.73
2018-07-24T10:33:48.176Z,6.33
2018-07-24T10:35:52.937Z,6.70
2018-07-24T10:37:58.134Z,6.83
2018-07-24T10:40:04.534Z,6.90
2018-07-24T10:42:09.225Z,6.93
2018-07-24T10:44:14.363Z,7.23
2018-07-24T10:48:31.641Z,6.83
2018-07-24T10:50:37.018Z,7.00
2018-07-24T10:52:45.109Z,6.80
2018-07-24T10:54:50.118Z,7.17
2018-07-24T10:56:54.515Z,7.83
2018-07-24T10:58:59.034Z,7.67
2018-07-24T11:01:06.462Z,7.00
2018-07-24T11:03:13.413Z,6.77
2018-07-24T11:05:18.010Z,6.80
2018-07-24T11:07:22.343Z,6.93
2018-07-24T11:09:26.489Z,7.57
2018-07-24T11:11:30.496Z,7.00
2018-07-24T11:13:34.283Z,6.70
2018-07-24T11:15:41.211Z,6.83
2018-07-24T11:17:45.651Z,6.90
2018-07-24T11:19:49.589Z,7.93
2018-07-24T11:22:04.593Z,7.00
2018-07-24T11:24:16.863Z,6.60
2018-07-24T11:26:21.889Z,6.80
2018-07-24T11:28:27.223Z,6.97
2018-07-24T11:30:33.202Z,6.53
2018-07-24T11:32:38.192Z,6.80
2018-07-24T11:34:42.904Z,6.40
2018-07-24T11:36:48.802Z,6.30
2018-07-24T11:38:53.866Z,7.03
2018-07-24T11:40:59.424Z,7.30
2018-07-24T11:43:06.720Z,6.70
2018-07-24T11:45:11.368Z,6.50
2018-07-24T11:47:15.807Z,6.97
2018-07-24T11:49:20.204Z,6.47
2018-07-24T11:51:24.197Z,5.73
2018-07-24T11:53:28.148Z,6.07
2018-07-24T11:55:32.582Z,6.30
2018-07-24T11:57:37.493Z,6.40
2018-07-24T11:59:42.057Z,6.45
2018-07-24T12:01:47.627Z,6.25
2018-07-24T12:03:51.618Z,5.72
2018-07-24T12:05:55.764Z,6.20
2018-07-24T12:07:59.485Z,6.75
2018-07-24T12:10:03.965Z,6.67
2018-07-24T12:12:09.218Z,9.87
2018-07-24T12:14:15.674Z,6.73
2018-07-24T12:16:22.242Z,6.80
2018-07-24T12:18:44.901Z,7.03
2018-07-24T12:21:01.829Z,7.17
2018-07-24T12:23:31.425Z,6.97
2018-07-24T12:25:37.344Z,7.37
2018-07-24T12:27:41.787Z,7.43
2018-07-24T12:29:47.029Z,7.83
2018-07-24T12:31:52.128Z,6.57
2018-07-24T12:34:00.007Z,6.90
2018-07-24T12:36:16.755Z,6.47
2018-07-24T12:41:41.868Z,7.23
2018-07-24T12:43:46.768Z,7.03
2018-07-24T12:45:53.004Z,6.50
2018-07-24T12:48:05.228Z,6.77
2018-07-24T12:50:10.671Z,6.17
2018-07-24T12:52:15.762Z,6.43
2018-07-24T12:54:24.362Z,6.17
2018-07-24T12:56:36.055Z,5.83
2018-07-24T12:58:47.371Z,6.77
2018-07-24T13:01:01.145Z,6.17
2018-07-24T13:03:08.554Z,6.53
2018-07-24T13:05:14.674Z,6.33
2018-07-24T13:07:19.213Z,9.27
2018-07-24T13:09:23.243Z,6.97
2018-07-24T13:11:27.990Z,6.17
2018-07-24T13:13:33.269Z,6.73
2018-07-24T13:15:36.899Z,6.73
2018-07-24T13:17:40.746Z,6.40
2018-07-24T13:19:44.569Z,6.50
2018-07-24T13:21:48.992Z,6.43
2018-07-24T13:23:52.724Z,6.83
2018-07-24T13:25:57.305Z,7.10
2018-07-24T13:28:01.218Z,6.67
2018-07-24T13:30:07.379Z,6.23
2018-07-24T13:32:13.217Z,5.80
2018-07-24T13:34:20.994Z,6.30
2018-07-24T13:36:26.352Z,6.30
2018-07-24T13:38:30.754Z,6.10
2018-07-24T13:40:34.963Z,6.73
2018-07-24T13:42:38.781Z,6.20
2018-07-24T13:44:42.483Z,6.90
2018-07-24T13:46:46.104Z,6.73
2018-07-24T13:48:50.792Z,6.30
2018-07-24T13:50:54.532Z,6.87
2018-07-24T13:52:58.721Z,6.13
2018-07-24T13:55:02.796Z,5.90
2018-07-24T13:57:06.465Z,6.73
2018-07-24T13:59:10.366Z,8.77
2018-07-24T14:01:14.882Z,6.50
2018-07-24T14:03:18.744Z,6.87
2018-07-24T14:05:22.436Z,6.60
2018-07-24T14:07:27.260Z,6.83
2018-07-24T14:09:31.561Z,7.07
2018-07-24T14:11:35.770Z,7.80
2018-07-24T14:13:39.450Z,7.70
2018-07-24T14:15:43.145Z,7.50
2018-07-24T14:17:47.008Z,7.10
2018-07-24T14:19:51.076Z,6.83
2018-07-24T14:21:55.058Z,6.90
2018-07-24T14:23:58.817Z,7.60
2018-07-24T14:26:02.413Z,8.27
2018-07-24T14:28:06.160Z,8.00
2018-07-24T14:30:10.674Z,7.47
2018-07-24T14:32:15.291Z,7.20
2018-07-24T14:34:19.522Z,6.83
2018-07-24T14:36:23.349Z,7.90
2018-07-24T14:38:27.128Z,7.00
2018-07-24T14:40:30.865Z,6.77
2018-07-24T14:42:39.998Z,6.43
2018-07-24T14:44:43.534Z,7.43
2018-07-24T14:46:47.283Z,7.20
2018-07-24T14:48:51.214Z,7.23
2018-07-24T14:50:54.812Z,8.93
2018-07-24T14:52:58.376Z,9.50
2018-07-24T14:55:01.923Z,7.17
2018-07-24T14:57:05.528Z,7.43
2018-07-24T14:59:09.169Z,8.00
2018-07-24T15:01:12.737Z,7.63
2018-07-24T15:03:16.386Z,7.53
2018-07-24T15:05:19.961Z,7.33
2018-07-24T15:07:23.694Z,8.07
2018-07-24T15:09:28.520Z,7.27
2018-07-24T15:11:32.163Z,7.67
2018-07-24T15:13:35.752Z,8.67
2018-07-24T15:15:39.480Z,7.33
2018-07-24T15:17:43.102Z,7.13
2018-07-24T15:19:46.696Z,7.87
2018-07-24T15:21:50.299Z,7.57
2018-07-24T15:23:53.877Z,7.73
2018-07-24T15:25:57.876Z,8.07
2018-07-24T15:28:01.451Z,7.40
2018-07-24T15:30:06.983Z,7.27
2018-07-24T15:32:10.546Z,7.03
2018-07-24T15:34:14.187Z,7.70
2018-07-24T15:36:17.823Z,8.00
2018-07-24T15:38:21.409Z,7.03
2018-07-24T15:40:25.007Z,7.10
2018-07-24T15:42:28.579Z,7.47
2018-07-24T15:44:32.188Z,6.63
2018-07-24T15:46:36.059Z,7.00
2018-07-24T15:48:40.220Z,7.17
2018-07-24T15:50:44.040Z,6.80
2018-07-24T15:52:47.590Z,7.10
2018-07-24T15:54:51.470Z,6.40
2018-07-24T15:56:55.222Z,6.73
2018-07-24T15:58:59.069Z,6.20
2018-07-24T16:01:02.956Z,6.63
2018-07-24T16:03:07.211Z,6.77
2018-07-24T16:05:10.788Z,6.63
2018-07-24T16:07:14.397Z,6.30
2018-07-24T16:09:17.943Z,6.60
2018-07-24T16:11:21.518Z,6.80
2018-07-24T16:13:25.077Z,6.37
2018-07-24T16:15:28.687Z,6.67
2018-07-24T16:17:32.536Z,6.40
2018-07-24T16:19:36.606Z,6.70
2018-07-24T16:21:40.192Z,7.17
2018-07-24T16:23:43.773Z,7.03
2018-07-24T16:25:47.693Z,6.47
2018-07-24T16:27:51.297Z,6.00
2018-07-24T16:29:54.931Z,6.43
2018-07-24T16:31:58.954Z,6.07
2018-07-24T16:34:02.605Z,6.30
2018-07-24T16:36:06.459Z,5.77
2018-07-24T16:38:10.073Z,6.17
2018-07-24T16:40:13.617Z,6.33
2018-07-24T16:42:17.170Z,6.90
2018-07-24T16:44:20.721Z,6.23
2018-07-24T16:46:24.322Z,7.60
2018-07-24T16:48:28.531Z,6.13
2018-07-24T16:50:32.084Z,6.53
2018-07-24T16:52:35.792Z,7.30
2018-07-24T16:54:39.391Z,6.80
2018-07-24T16:56:43.005Z,6.70
2018-07-24T16:58:46.573Z,7.00
2018-07-24T17:00:50.125Z,6.33
2018-07-24T17:02:53.861Z,6.20
2018-07-24T17:04:57.577Z,6.87
2018-07-24T17:07:01.210Z,7.07
2018-07-24T17:09:08.501Z,7.37
2018-07-24T17:11:12.059Z,6.67
2018-07-24T17:13:15.653Z,7.07
2018-07-24T17:15:19.250Z,6.47
2018-07-24T17:17:22.831Z,7.07
2018-07-24T17:19:26.848Z,7.00
2018-07-24T17:21:30.490Z,7.37
2018-07-24T17:23:34.132Z,7.67
2018-07-24T17:25:37.680Z,7.30
2018-07-24T17:27:41.377Z,7.73
2018-07-24T17:29:45.083Z,6.60
2018-07-24T17:31:48.650Z,7.30
2018-07-24T17:33:52.374Z,7.47
2018-07-24T17:35:55.936Z,7.60
2018-07-24T17:37:59.695Z,7.93
2018-07-24T17:40:04.337Z,7.33
2018-07-24T17:42:07.877Z,8.30
2018-07-24T17:44:11.450Z,7.87
2018-07-24T17:46:15.009Z,7.03
2018-07-24T17:48:18.608Z,6.93
2018-07-24T17:50:22.331Z,7.23
2018-07-24T17:52:26.030Z,7.70
2018-07-24T17:54:29.603Z,8.17
2018-07-24T17:56:33.139Z,7.23
2018-07-24T17:58:37.044Z,7.40
2018-07-24T18:00:40.580Z,7.73
2018-07-24T18:02:44.181Z,8.50
2018-07-24T18:04:47.776Z,7.10
2018-07-24T18:06:51.330Z,7.53
2018-07-24T18:08:54.946Z,7.40
2018-07-24T18:10:58.503Z,7.57
2018-07-24T18:13:02.064Z,7.33
2018-07-24T18:15:05.650Z,7.53
2018-07-24T18:17:09.214Z,7.37
2018-07-24T18:19:13.530Z,7.13
2018-07-24T18:21:17.115Z,8.67
2018-07-24T18:23:21.221Z,8.20
2018-07-24T18:25:25.123Z,7.90
2018-07-24T18:27:28.693Z,8.00
2018-07-24T18:29:32.275Z,8.03
2018-07-24T18:31:35.813Z,9.37
2018-07-24T18:33:39.412Z,8.73
2018-07-24T18:35:42.928Z,8.63
2018-07-24T18:37:46.461Z,8.37
2018-07-24T18:39:50.051Z,8.70
2018-07-24T18:41:53.866Z,7.70
2018-07-24T18:43:57.450Z,8.40
2018-07-24T18:46:00.957Z,8.37
2018-07-24T18:48:04.528Z,9.50
2018-07-24T18:50:08.071Z,9.30
2018-07-24T18:52:11.669Z,8.43
2018-07-24T18:54:15.602Z,8.67
2018-07-24T18:56:20.140Z,8.80
2018-07-24T18:58:23.698Z,10.17
2018-07-24T19:00:27.629Z,10.10
2018-07-24T19:02:31.159Z,9.57
2018-07-24T19:04:34.706Z,9.60
2018-07-24T19:06:38.292Z,9.60
2018-07-24T19:08:41.854Z,9.73
2018-07-24T19:10:45.367Z,9.77
2018-07-24T19:12:49.375Z,10.13
2018-07-24T19:14:53.398Z,10.00
2018-07-24T19:16:56.950Z,11.17
2018-07-24T19:19:01.103Z,10.37
2018-07-24T19:21:04.767Z,10.27
2018-07-24T19:23:08.365Z,11.33
2018-07-24T19:25:11.928Z,10.97
2018-07-24T19:27:15.454Z,10.73
2018-07-24T19:29:19.048Z,10.17
2018-07-24T19:31:22.651Z,10.63
2018-07-24T19:33:26.407Z,10.43
2018-07-24T19:35:29.956Z,10.10
2018-07-24T19:37:33.432Z,9.77
2018-07-24T19:39:37.000Z,9.67
2018-07-24T19:41:40.573Z,10.20
2018-07-24T19:43:44.181Z,10.77
2018-07-24T19:45:48.268Z,10.43
2018-07-24T19:47:52.204Z,10.47
2018-07-24T19:49:55.989Z,10.83
2018-07-24T19:51:59.783Z,10.27
2018-07-24T19:54:03.717Z,10.13
2018-07-24T19:56:07.317Z,10.43
2018-07-24T19:58:11.057Z,10.70
2018-07-24T20:00:15.225Z,9.97
2018-07-24T20:02:18.796Z,9.90
2018-07-24T20:04:22.473Z,11.73
2018-07-24T20:06:26.026Z,9.73
2018-07-24T20:08:30.269Z,10.57
2018-07-24T20:10:33.872Z,10.37
2018-07-24T20:12:37.446Z,10.87
2018-07-24T20:14:40.997Z,10.23
2018-07-24T20:16:44.576Z,11.73
2018-07-24T20:18:48.143Z,11.37
2018-07-24T20:20:51.706Z,11.27
2018-07-24T20:22:55.394Z,10.80
2018-07-24T20:24:59.342Z,12.40
2018-07-24T20:27:02.911Z,12.53
2018-07-24T20:29:06.572Z,11.50
2018-07-24T20:31:10.164Z,12.10
2018-07-24T20:33:14.129Z,11.77
2018-07-24T20:35:17.752Z,12.10
2018-07-24T20:37:21.511Z,12.50
2018-07-24T20:39:25.117Z,11.37
2018-07-24T20:41:28.814Z,10.97
2018-07-24T20:43:32.508Z,12.30
2018-07-24T20:45:36.104Z,11.60
2018-07-24T20:47:39.647Z,11.60
2018-07-24T20:49:43.198Z,12.07
2018-07-24T20:51:46.812Z,11.67
2018-07-24T20:53:50.425Z,12.57
2018-07-24T20:55:54.048Z,18.07
2018-07-24T20:57:58.010Z,12.93
2018-07-24T21:00:01.602Z,11.97
2018-07-24T21:02:05.189Z,12.90
2018-07-24T21:04:08.768Z,12.23
2018-07-24T21:06:12.284Z,13.03
2018-07-24T21:08:15.885Z,12.47
2018-07-24T21:10:20.097Z,13.47
2018-07-24T21:12:23.624Z,12.17
2018-07-24T21:14:27.224Z,12.30
2018-07-24T21:16:30.750Z,13.80
2018-07-24T21:18:34.320Z,12.83
2018-07-24T21:20:38.791Z,12.90
2018-07-24T21:22:42.346Z,14.57
2018-07-24T21:24:45.961Z,13.87
2018-07-24T21:26:49.938Z,15.40
2018-07-24T21:28:53.540Z,15.13
2018-07-24T21:30:57.201Z,14.27
2018-07-24T21:33:00.768Z,12.73
2018-07-24T21:35:04.791Z,13.00
2018-07-24T21:37:08.741Z,13.07
2018-07-24T21:39:12.701Z,12.97
2018-07-24T21:41:16.321Z,14.17
2018-07-24T21:43:19.935Z,13.87
2018-07-24T21:45:23.549Z,13.37
2018-07-24T21:47:27.140Z,13.30
2018-07-24T21:49:30.761Z,14.87
2018-07-24T21:51:34.379Z,14.77
2018-07-24T21:53:37.915Z,14.17
2018-07-24T21:55:41.489Z,14.70
2018-07-24T21:57:45.018Z,14.07
2018-07-24T21:59:48.700Z,14.40
2018-07-24T22:01:52.313Z,14.87
2018-07-24T22:03:55.849Z,15.67
2018-07-24T22:05:59.522Z,15.40
2018-07-24T22:08:03.170Z,14.00
2018-07-24T22:10:11.761Z,14.53
2018-07-24T22:12:15.336Z,15.23
2018-07-24T22:14:18.919Z,16.17
2018-07-24T22:16:22.494Z,16.00
2018-07-24T22:18:26.071Z,17.00
2018-07-24T22:20:29.677Z,15.40
2018-07-24T22:22:33.328Z,15.33
2018-07-24T22:24:36.908Z,15.43
2018-07-24T22:26:40.479Z,15.50
2018-07-24T22:28:44.038Z,16.20
2018-07-24T22:30:47.691Z,15.80
2018-07-24T22:32:51.290Z,15.63
2018-07-24T22:34:54.874Z,15.30
2018-07-24T22:36:58.504Z,15.57
2018-07-24T22:39:02.121Z,15.20
2018-07-24T22:41:06.139Z,15.87
2018-07-24T22:43:09.757Z,14.37
2018-07-24T22:45:13.364Z,15.27
2018-07-24T22:47:17.271Z,15.90
2018-07-24T22:49:20.833Z,16.77
2018-07-24T22:51:24.432Z,15.80
2018-07-24T22:53:28.012Z,16.83
2018-07-24T22:55:31.602Z,16.07
2018-07-24T22:57:35.119Z,15.17
2018-07-24T22:59:38.698Z,15.90
2018-07-24T23:01:42.263Z,16.47
2018-07-24T23:03:45.807Z,15.47
2018-07-24T23:05:49.444Z,15.10
2018-07-24T23:07:52.986Z,15.30
2018-07-24T23:09:56.600Z,15.40
2018-07-24T23:12:00.233Z,15.87
2018-07-24T23:14:03.896Z,16.23
2018-07-24T23:16:07.552Z,15.00
2018-07-24T23:18:11.084Z,13.83
2018-07-24T23:20:14.664Z,16.33
2018-07-24T23:22:18.181Z,16.30
2018-07-24T23:24:21.795Z,15.93
2018-07-24T23:26:25.789Z,17.00
2018-07-24T23:28:29.356Z,16.20
2018-07-24T23:30:33.314Z,16.40
2018-07-24T23:32:37.273Z,17.60
2018-07-24T23:34:40.832Z,18.03
2018-07-24T23:36:44.430Z,17.70
2018-07-24T23:38:47.965Z,17.00
2018-07-24T23:40:51.577Z,17.43
2018-07-24T23:42:55.196Z,18.33
2018-07-24T23:44:58.786Z,16.83
2018-07-24T23:47:02.378Z,17.33
2018-07-24T23:49:06.139Z,16.87
2018-07-24T23:51:09.827Z,17.57
2018-07-24T23:53:13.335Z,17.30
2018-07-24T23:55:17.787Z,18.23
2018-07-24T23:57:21.362Z,17.40
2018-07-24T23:59:24.967Z,17.80
